Time;durP1;ratioP1;P1;durP2;ratioP2;P2;SDS_P1;SDS_P2;PMS_P1;PMS_P2;Temp;Humidity;BMP_temperature;BMP_pressure;BME280_temperature;BME280_humidity;BME280_pressure;Samples;Min_cycle;Max_cycle;Signal;HPM_P1;HPM_P2
2021/12/03 00:01:06;;;;;;;9.93;3.70;;;;;;;;;;5132332;27;20042;-75
2021/12/03 00:03:34;;;;;;;14.80;4.05;;;;;;;;;;5107843;27;20612;-75
2021/12/03 00:06:00;;;;;;;11.98;3.40;;;;;;;;;;5132297;27;20050;-74
2021/12/03 00:08:26;;;;;;;12.90;3.80;;;;;;;;;;5103718;28;20061;-75
2021/12/03 00:11:01;;;;;;;11.60;4.40;;;;;;;;;;5127080;27;20384;-75
2021/12/03 00:13:31;;;;;;;9.05;3.97;;;;;;;;;;5099311;28;20042;-75
2021/12/03 00:15:58;;;;;;;8.48;3.92;;;;;;;;;;5078530;28;20064;-76
2021/12/03 00:18:25;;;;;;;11.98;3.88;;;;;;;;;;5123340;28;20043;-76
2021/12/03 00:20:51;;;;;;;10.48;4.72;;;;;;;;;;5133658;28;20043;-76
2021/12/03 00:23:18;;;;;;;9.95;4.05;;;;;;;;;;5129994;28;20031;-76
2021/12/03 00:25:45;;;;;;;15.60;4.50;;;;;;;;;;5133297;28;20074;-76
2021/12/03 00:28:11;;;;;;;13.45;4.50;;;;;;;;;;5106111;28;20431;-76
2021/12/03 00:30:37;;;;;;;10.15;4.53;;;;;;;;;;5121565;28;20043;-76
2021/12/03 00:33:04;;;;;;;10.02;4.45;;;;;;;;;;5123883;28;20035;-76
2021/12/03 00:35:31;;;;;;;11.55;5.28;;;;;;;;;;5103373;28;20075;-76
2021/12/03 00:37:57;;;;;;;13.20;4.60;;;;;;;;;;5078784;28;20051;-76
2021/12/03 00:40:27;;;;;;;10.73;4.22;;;;;;;;;;5114256;28;20380;-76
2021/12/03 00:42:53;;;;;;;10.05;4.40;;;;;;;;;;5128852;28;20043;-75
2021/12/03 00:45:20;;;;;;;13.85;4.50;;;;;;;;;;5114888;28;20046;-75
2021/12/03 00:47:47;;;;;;;10.55;4.32;;;;;;;;;;5107757;28;20168;-76
2021/12/03 00:50:15;;;;;;;11.45;5.18;;;;;;;;;;5094703;28;20047;-76
2021/12/03 00:52:41;;;;;;;13.23;4.55;;;;;;;;;;5115393;27;20031;-76
2021/12/03 00:55:08;;;;;;;16.80;5.53;;;;;;;;;;5132812;28;20043;-76
2021/12/03 00:57:34;;;;;;;16.40;5.43;;;;;;;;;;5128565;28;20392;-75
2021/12/03 01:00:01;;;;;;;16.48;5.43;;;;;;;;;;5101527;28;20047;-75
2021/12/03 01:02:27;;;;;;;13.07;5.28;;;;;;;;;;5111313;28;20054;-75
2021/12/03 01:04:53;;;;;;;13.13;6.47;;;;;;;;;;5078452;28;20040;-76
2021/12/03 01:07:19;;;;;;;11.95;6.38;;;;;;;;;;5092454;28;20206;-76
2021/12/03 01:09:45;;;;;;;15.68;5.90;;;;;;;;;;5104616;28;20043;-76
2021/12/03 01:12:11;;;;;;;14.70;6.60;;;;;;;;;;5111566;28;20039;-76
2021/12/03 01:14:39;;;;;;;11.93;5.70;;;;;;;;;;5104277;28;20118;-76
2021/12/03 01:17:06;;;;;;;16.70;6.63;;;;;;;;;;5113968;28;20047;-75
2021/12/03 01:19:32;;;;;;;14.73;6.25;;;;;;;;;;5111624;28;20078;-75
2021/12/03 01:21:58;;;;;;;15.68;6.82;;;;;;;;;;5110665;28;20567;-75
2021/12/03 01:24:24;;;;;;;17.60;6.70;;;;;;;;;;5096207;28;20122;-75
2021/12/03 01:26:54;;;;;;;17.30;6.70;;;;;;;;;;5098468;28;20049;-75
2021/12/03 01:29:20;;;;;;;12.80;6.60;;;;;;;;;;5129991;27;20043;-75
2021/12/03 01:31:47;;;;;;;15.88;7.43;;;;;;;;;;5102726;28;20528;-75
2021/12/03 01:34:14;;;;;;;13.45;7.55;;;;;;;;;;5101009;27;20051;-76
2021/12/03 01:36:40;;;;;;;13.23;6.82;;;;;;;;;;5120122;27;20374;-74
2021/12/03 01:39:07;;;;;;;14.02;6.20;;;;;;;;;;5108010;27;20047;-75
2021/12/03 01:41:33;;;;;;;17.88;8.30;;;;;;;;;;5136181;27;20047;-75
2021/12/03 01:44:03;;;;;;;16.42;7.72;;;;;;;;;;5133643;27;20066;-75
2021/12/03 01:46:30;;;;;;;15.93;7.75;;;;;;;;;;5122414;27;20040;-76
2021/12/03 01:48:56;;;;;;;17.88;8.50;;;;;;;;;;5120442;27;20031;-74
2021/12/03 01:51:23;;;;;;;22.65;9.00;;;;;;;;;;5136048;27;20391;-74
2021/12/03 01:53:49;;;;;;;14.05;7.90;;;;;;;;;;5123289;27;20405;-75
2021/12/03 01:56:16;;;;;;;15.20;8.88;;;;;;;;;;5135778;27;20627;-76
2021/12/03 01:58:44;;;;;;;18.63;9.18;;;;;;;;;;5129409;27;20043;-76
2021/12/03 02:01:12;;;;;;;23.33;10.45;;;;;;;;;;5103355;27;20083;-75
2021/12/03 02:03:40;;;;;;;24.95;10.90;;;;;;;;;;5131101;27;20071;-75
2021/12/03 02:06:07;;;;;;;18.20;9.45;;;;;;;;;;5135715;27;20492;-76
2021/12/03 02:08:33;;;;;;;20.05;11.20;;;;;;;;;;5133151;27;20562;-75
2021/12/03 02:11:00;;;;;;;20.27;10.90;;;;;;;;;;5135582;27;20050;-75
2021/12/03 02:13:26;;;;;;;21.13;11.77;;;;;;;;;;5110988;27;20110;-75
2021/12/03 02:15:52;;;;;;;18.73;11.57;;;;;;;;;;5135745;27;20134;-75
2021/12/03 02:18:18;;;;;;;21.67;12.35;;;;;;;;;;5131699;27;20047;-75
2021/12/03 02:20:49;;;;;;;22.20;12.95;;;;;;;;;;5135555;27;20043;-75
2021/12/03 02:23:16;;;;;;;25.08;14.45;;;;;;;;;;5126896;27;20039;-75
2021/12/03 02:25:43;;;;;;;24.50;12.60;;;;;;;;;;5124291;27;20047;-75
2021/12/03 02:28:10;;;;;;;21.13;12.57;;;;;;;;;;5132243;27;20087;-76
2021/12/03 02:30:36;;;;;;;24.05;14.32;;;;;;;;;;5122175;27;20236;-76
2021/12/03 02:33:02;;;;;;;23.02;14.75;;;;;;;;;;5117569;27;20411;-75
2021/12/03 02:35:28;;;;;;;18.88;13.75;;;;;;;;;;5131141;27;20095;-76
2021/12/03 02:37:54;;;;;;;24.85;15.45;;;;;;;;;;5108196;27;20616;-75
2021/12/03 02:40:22;;;;;;;23.20;14.93;;;;;;;;;;5096011;28;20049;-77
2021/12/03 02:42:48;;;;;;;28.17;15.60;;;;;;;;;;5098642;27;20118;-75
2021/12/03 02:45:15;;;;;;;20.42;14.77;;;;;;;;;;5114562;27;20104;-75
2021/12/03 02:47:41;;;;;;;21.55;15.73;;;;;;;;;;5095977;28;20384;-75
2021/12/03 02:50:08;;;;;;;21.65;14.70;;;;;;;;;;5104645;28;20044;-75
2021/12/03 02:52:34;;;;;;;21.50;14.68;;;;;;;;;;5098851;28;20071;-76
2021/12/03 02:55:01;;;;;;;21.92;14.35;;;;;;;;;;5100748;28;20132;-74
2021/12/03 02:57:27;;;;;;;25.83;16.00;;;;;;;;;;5096014;28;20040;-76
2021/12/03 02:59:53;;;;;;;22.30;15.10;;;;;;;;;;5121341;27;20082;-76
2021/12/03 03:02:19;;;;;;;27.02;16.02;;;;;;;;;;5119722;27;20050;-74
2021/12/03 03:04:45;;;;;;;24.95;16.30;;;;;;;;;;5108564;27;20447;-76
2021/12/03 03:07:11;;;;;;;22.88;15.63;;;;;;;;;;5134508;27;20126;-75
2021/12/03 03:09:38;;;;;;;21.95;15.20;;;;;;;;;;5099494;28;20126;-75
2021/12/03 03:12:04;;;;;;;20.98;14.63;;;;;;;;;;5078380;28;20055;-75
2021/12/03 03:14:30;;;;;;;26.45;16.40;;;;;;;;;;5127267;27;20050;-75
2021/12/03 03:16:56;;;;;;;23.02;16.60;;;;;;;;;;5134464;27;20121;-75
2021/12/03 03:19:23;;;;;;;23.92;15.98;;;;;;;;;;5128555;27;20083;-75
2021/12/03 03:21:49;;;;;;;24.45;16.75;;;;;;;;;;5133198;27;20858;-75
2021/12/03 03:24:16;;;;;;;26.90;18.48;;;;;;;;;;5119649;27;20079;-76
2021/12/03 03:26:44;;;;;;;25.52;17.25;;;;;;;;;;5113086;28;20118;-75
2021/12/03 03:29:11;;;;;;;27.98;17.55;;;;;;;;;;5120792;27;20135;-74
2021/12/03 03:31:38;;;;;;;28.40;18.40;;;;;;;;;;5131805;27;20463;-75
2021/12/03 03:34:06;;;;;;;25.75;19.92;;;;;;;;;;5119636;27;20039;-76
2021/12/03 03:36:33;;;;;;;23.30;17.67;;;;;;;;;;5097401;27;20053;-75
2021/12/03 03:38:59;;;;;;;27.20;18.27;;;;;;;;;;5112717;27;20092;-75
2021/12/03 03:41:25;;;;;;;26.95;19.48;;;;;;;;;;5132190;27;20050;-76
2021/12/03 03:43:51;;;;;;;26.70;20.20;;;;;;;;;;5105226;27;20110;-76
2021/12/03 03:46:18;;;;;;;28.42;18.35;;;;;;;;;;5133885;27;20131;-76
2021/12/03 03:48:44;;;;;;;25.98;19.08;;;;;;;;;;5102941;27;20058;-76
2021/12/03 03:51:10;;;;;;;26.00;19.30;;;;;;;;;;5133482;27;20125;-75
2021/12/03 03:53:38;;;;;;;28.90;18.55;;;;;;;;;;5120222;27;20122;-76
2021/12/03 03:56:05;;;;;;;25.13;18.48;;;;;;;;;;5099311;28;20492;-74
2021/12/03 03:58:31;;;;;;;25.50;19.10;;;;;;;;;;5120074;27;20088;-75
2021/12/03 04:00:58;;;;;;;26.42;18.30;;;;;;;;;;5117732;27;20039;-75
2021/12/03 04:03:24;;;;;;;27.35;18.88;;;;;;;;;;5098083;27;20039;-76
2021/12/03 04:05:50;;;;;;;24.90;18.88;;;;;;;;;;5116329;27;20054;-76
2021/12/03 04:08:16;;;;;;;24.85;18.63;;;;;;;;;;5113190;28;20385;-76
2021/12/03 04:10:43;;;;;;;25.65;18.40;;;;;;;;;;5128322;27;20130;-76
2021/12/03 04:13:09;;;;;;;24.83;18.85;;;;;;;;;;5133615;27;20050;-76
2021/12/03 04:15:35;;;;;;;25.17;19.02;;;;;;;;;;5130534;27;20039;-76
2021/12/03 04:18:01;;;;;;;25.77;18.25;;;;;;;;;;5115360;28;20100;-76
2021/12/03 04:20:27;;;;;;;25.08;17.85;;;;;;;;;;5131256;28;20039;-75
2021/12/03 04:22:53;;;;;;;24.58;18.83;;;;;;;;;;5132046;28;20071;-76
2021/12/03 04:25:21;;;;;;;24.92;19.30;;;;;;;;;;5129794;28;20484;-75
2021/12/03 04:27:50;;;;;;;22.13;18.45;;;;;;;;;;5115407;28;20087;-78
2021/12/03 04:30:25;;;;;;;26.85;18.38;;;;;;;;;;5112915;28;20461;-78
2021/12/03 04:32:54;;;;;;;27.08;19.00;;;;;;;;;;5109508;28;20443;-77
2021/12/03 04:35:23;;;;;;;26.45;17.75;;;;;;;;;;5132842;28;20062;-77
2021/12/03 04:37:49;;;;;;;22.63;18.05;;;;;;;;;;5120060;28;20043;-76
2021/12/03 04:40:17;;;;;;;24.52;18.55;;;;;;;;;;5113563;28;20039;-75
2021/12/03 04:42:43;;;;;;;25.63;18.58;;;;;;;;;;5133262;28;20049;-76
2021/12/03 04:45:10;;;;;;;23.55;17.90;;;;;;;;;;5113556;28;20130;-75
2021/12/03 04:47:37;;;;;;;22.58;17.83;;;;;;;;;;5094914;28;20039;-75
2021/12/03 04:50:05;;;;;;;24.77;18.05;;;;;;;;;;5119404;28;20035;-75
2021/12/03 04:52:31;;;;;;;23.60;17.75;;;;;;;;;;5115175;27;20044;-75
2021/12/03 04:54:58;;;;;;;27.80;18.02;;;;;;;;;;5119898;28;20043;-75
2021/12/03 04:57:24;;;;;;;29.60;18.27;;;;;;;;;;5112540;28;20077;-74
2021/12/03 04:59:50;;;;;;;22.55;18.77;;;;;;;;;;5115048;28;20051;-75
2021/12/03 05:02:19;;;;;;;25.95;19.02;;;;;;;;;;5117614;27;20043;-75
2021/12/03 05:04:47;;;;;;;22.33;18.25;;;;;;;;;;5134828;27;20035;-76
2021/12/03 05:07:28;;;;;;;25.85;18.35;;;;;;;;;;5136941;27;20046;-76
2021/12/03 05:09:54;;;;;;;25.75;17.98;;;;;;;;;;5135839;27;20118;-75
2021/12/03 05:12:21;;;;;;;27.15;18.92;;;;;;;;;;5137172;27;20046;-75
2021/12/03 05:14:47;;;;;;;25.23;19.05;;;;;;;;;;5104216;28;20039;-75
2021/12/03 05:17:13;;;;;;;23.25;18.45;;;;;;;;;;5116459;28;20049;-76
2021/12/03 05:19:39;;;;;;;24.48;19.67;;;;;;;;;;5097435;28;20406;-76
2021/12/03 05:22:05;;;;;;;27.63;19.60;;;;;;;;;;5133129;27;20035;-76
2021/12/03 05:24:31;;;;;;;24.08;18.88;;;;;;;;;;5136683;27;20035;-75
2021/12/03 05:26:58;;;;;;;25.63;19.75;;;;;;;;;;5097184;28;20044;-75
2021/12/03 05:29:24;;;;;;;25.30;20.23;;;;;;;;;;5106095;28;20035;-75
2021/12/03 05:31:50;;;;;;;23.48;19.00;;;;;;;;;;5131844;27;20123;-76
2021/12/03 05:34:16;;;;;;;26.48;19.27;;;;;;;;;;5128932;27;20043;-76
2021/12/03 05:36:43;;;;;;;28.20;20.90;;;;;;;;;;5132575;27;20039;-76
2021/12/03 05:39:10;;;;;;;26.45;19.35;;;;;;;;;;5120522;27;20118;-76
2021/12/03 05:41:36;;;;;;;25.50;19.23;;;;;;;;;;5098042;28;20043;-74
2021/12/03 05:44:04;;;;;;;28.70;19.90;;;;;;;;;;5128907;27;20047;-76
2021/12/03 05:46:30;;;;;;;30.45;21.55;;;;;;;;;;5136299;27;20503;-76
2021/12/03 05:48:56;;;;;;;28.48;20.77;;;;;;;;;;5092309;27;20078;-75
2021/12/03 05:51:25;;;;;;;30.05;20.73;;;;;;;;;;5134744;27;20046;-75
2021/12/03 05:53:51;;;;;;;29.23;18.98;;;;;;;;;;5135556;27;20051;-76
2021/12/03 05:56:17;;;;;;;28.83;20.67;;;;;;;;;;5132600;27;20134;-76
2021/12/03 05:58:44;;;;;;;28.40;20.20;;;;;;;;;;5116835;27;20099;-76
2021/12/03 06:01:10;;;;;;;29.88;21.23;;;;;;;;;;5107147;27;20077;-75
2021/12/03 06:03:36;;;;;;;24.88;19.15;;;;;;;;;;5099788;27;20057;-74
2021/12/03 06:06:03;;;;;;;26.92;19.13;;;;;;;;;;5098973;28;20085;-75
2021/12/03 06:08:29;;;;;;;31.35;20.67;;;;;;;;;;5118623;27;20058;-76
2021/12/03 06:10:55;;;;;;;29.50;20.58;;;;;;;;;;5135981;27;20041;-75
2021/12/03 06:13:21;;;;;;;27.48;20.15;;;;;;;;;;5115862;27;20049;-76
2021/12/03 06:15:47;;;;;;;26.98;20.20;;;;;;;;;;5135098;27;20043;-76
2021/12/03 06:18:13;;;;;;;23.00;18.35;;;;;;;;;;5129988;27;20043;-76
2021/12/03 06:20:40;;;;;;;30.75;20.85;;;;;;;;;;5114837;27;20438;-76
2021/12/03 06:23:06;;;;;;;31.67;19.73;;;;;;;;;;5114605;27;20035;-76
2021/12/03 06:25:32;;;;;;;27.02;19.88;;;;;;;;;;5097054;28;20043;-75
2021/12/03 06:27:58;;;;;;;27.27;19.13;;;;;;;;;;5115211;27;20040;-75
2021/12/03 06:30:25;;;;;;;29.80;20.42;;;;;;;;;;5112617;27;20083;-76
2021/12/03 06:32:52;;;;;;;31.13;20.35;;;;;;;;;;5133023;27;20060;-75
2021/12/03 06:35:19;;;;;;;28.95;20.20;;;;;;;;;;5121813;27;20047;-75
2021/12/03 06:37:45;;;;;;;29.50;21.15;;;;;;;;;;5125740;27;20046;-76
2021/12/03 06:40:13;;;;;;;29.65;19.85;;;;;;;;;;5121507;27;20104;-76
2021/12/03 06:42:40;;;;;;;32.13;21.30;;;;;;;;;;5115623;27;20062;-76
2021/12/03 06:45:06;;;;;;;33.03;21.38;;;;;;;;;;5134833;27;20043;-76
2021/12/03 06:47:33;;;;;;;31.20;21.10;;;;;;;;;;5134963;27;20045;-76
2021/12/03 06:49:59;;;;;;;32.05;21.23;;;;;;;;;;5134669;27;20042;-76
2021/12/03 06:52:25;;;;;;;30.00;21.00;;;;;;;;;;5117112;27;20043;-75
2021/12/03 06:54:57;;;;;;;29.00;21.20;;;;;;;;;;5134816;27;20055;-76
2021/12/03 06:57:23;;;;;;;32.15;21.50;;;;;;;;;;5134958;27;20064;-76
2021/12/03 06:59:49;;;;;;;33.58;20.52;;;;;;;;;;5134704;27;20085;-77
2021/12/03 07:02:15;;;;;;;32.47;21.65;;;;;;;;;;5134716;27;20444;-75
2021/12/03 07:04:43;;;;;;;33.83;22.02;;;;;;;;;;5099391;27;20476;-76
2021/12/03 07:07:10;;;;;;;33.92;21.17;;;;;;;;;;5134913;27;20043;-73
2021/12/03 07:09:36;;;;;;;32.80;21.10;;;;;;;;;;5116399;27;20043;-75
2021/12/03 07:12:02;;;;;;;36.17;22.60;;;;;;;;;;5116397;27;20118;-75
2021/12/03 07:14:29;;;;;;;32.03;22.35;;;;;;;;;;5134275;27;20043;-76
2021/12/03 07:16:57;;;;;;;35.38;22.35;;;;;;;;;;5099037;27;20051;-76
2021/12/03 07:19:23;;;;;;;37.70;23.23;;;;;;;;;;5116505;27;20039;-76
2021/12/03 07:21:49;;;;;;;41.55;24.08;;;;;;;;;;5116509;27;20122;-76
2021/12/03 07:24:15;;;;;;;33.50;23.75;;;;;;;;;;5115695;27;20050;-76
2021/12/03 07:26:42;;;;;;;33.55;21.92;;;;;;;;;;5134332;27;20043;-75
2021/12/03 07:29:08;;;;;;;34.15;22.85;;;;;;;;;;5134166;27;20039;-76
2021/12/03 07:31:34;;;;;;;35.55;22.98;;;;;;;;;;5134013;27;20039;-76
2021/12/03 07:34:00;;;;;;;35.75;22.40;;;;;;;;;;5114688;27;20100;-76
2021/12/03 07:36:26;;;;;;;34.65;22.00;;;;;;;;;;5115749;27;20440;-75
2021/12/03 07:38:52;;;;;;;39.10;23.92;;;;;;;;;;5134039;27;20500;-77
2021/12/03 07:41:18;;;;;;;34.33;23.77;;;;;;;;;;5133994;27;20118;-76
2021/12/03 07:43:44;;;;;;;35.97;24.52;;;;;;;;;;5133979;27;20047;-77
2021/12/03 07:46:11;;;;;;;33.33;21.35;;;;;;;;;;5133804;27;20393;-77
2021/12/03 07:48:37;;;;;;;38.53;25.42;;;;;;;;;;5133709;27;20125;-77
2021/12/03 07:51:03;;;;;;;38.50;25.27;;;;;;;;;;5115555;27;20121;-75
2021/12/03 07:53:30;;;;;;;45.80;25.20;;;;;;;;;;5133656;27;20090;-77
2021/12/03 07:55:58;;;;;;;40.53;25.60;;;;;;;;;;5133873;27;20047;-77
2021/12/03 07:58:24;;;;;;;40.90;24.85;;;;;;;;;;5133742;27;20047;-77
2021/12/03 08:00:50;;;;;;;39.03;24.77;;;;;;;;;;5115294;27;20371;-77
2021/12/03 08:03:17;;;;;;;42.75;25.67;;;;;;;;;;5133963;27;20043;-77
2021/12/03 08:05:43;;;;;;;39.10;24.90;;;;;;;;;;5115688;27;20537;-77
2021/12/03 08:08:09;;;;;;;46.92;27.17;;;;;;;;;;5133827;27;20070;-78
2021/12/03 08:10:35;;;;;;;45.60;25.98;;;;;;;;;;5133744;27;20045;-76
2021/12/03 08:13:02;;;;;;;40.88;26.58;;;;;;;;;;5115234;27;20088;-76
2021/12/03 08:15:28;;;;;;;46.45;27.60;;;;;;;;;;5114928;28;20047;-75
2021/12/03 08:17:54;;;;;;;47.80;27.58;;;;;;;;;;5098618;28;20047;-77
2021/12/03 08:20:21;;;;;;;41.03;26.13;;;;;;;;;;5133725;28;20391;-76
2021/12/03 08:22:47;;;;;;;41.22;25.52;;;;;;;;;;5133662;28;20079;-77
2021/12/03 08:25:13;;;;;;;43.53;26.83;;;;;;;;;;5133531;28;20043;-76
2021/12/03 08:27:41;;;;;;;46.30;26.77;;;;;;;;;;5115224;28;20054;-77
2021/12/03 08:30:10;;;;;;;44.50;26.25;;;;;;;;;;5114850;28;20108;-78
2021/12/03 08:32:36;;;;;;;51.55;29.45;;;;;;;;;;5131803;28;20569;-76
2021/12/03 08:35:03;;;;;;;41.05;25.83;;;;;;;;;;5132932;28;20035;-77
2021/12/03 08:37:29;;;;;;;49.20;28.40;;;;;;;;;;5134118;27;20569;-76
2021/12/03 08:39:56;;;;;;;52.10;29.63;;;;;;;;;;5118579;27;20082;-76
2021/12/03 08:42:22;;;;;;;47.63;28.13;;;;;;;;;;5137357;27;20075;-76
2021/12/03 08:44:48;;;;;;;50.50;29.90;;;;;;;;;;5118975;27;20139;-76
2021/12/03 08:47:14;;;;;;;49.67;30.17;;;;;;;;;;5137636;27;20099;-76
2021/12/03 08:54:57;;;;;;;54.70;30.88;;;;;;;;;;5136871;27;20187;-75
2021/12/03 08:57:23;;;;;;;61.95;33.72;;;;;;;;;;5137318;27;20050;-76
2021/12/03 08:59:52;;;;;;;63.20;33.67;;;;;;;;;;5119051;27;20066;-75
2021/12/03 09:02:18;;;;;;;63.55;34.10;;;;;;;;;;5118954;27;20053;-76
2021/12/03 09:04:45;;;;;;;64.53;33.40;;;;;;;;;;5137227;27;20040;-76
2021/12/03 09:07:11;;;;;;;61.00;32.83;;;;;;;;;;5137046;27;20168;-76
2021/12/03 09:09:37;;;;;;;68.88;35.50;;;;;;;;;;5136842;27;20039;-76
2021/12/03 09:12:04;;;;;;;59.35;30.75;;;;;;;;;;5118801;27;20381;-76
2021/12/03 09:17:36;;;;;;;64.15;33.22;;;;;;;;;;5073797;27;20141;-76
2021/12/03 09:22:51;;;;;;;73.70;36.83;;;;;;;;;;5136591;27;20120;-76
2021/12/03 09:25:22;;;;;;;76.50;37.40;;;;;;;;;;5136525;27;20476;-76
2021/12/03 09:27:48;;;;;;;71.97;38.63;;;;;;;;;;5136799;27;20118;-76
2021/12/03 09:36:19;;;;;;;;;;;;;;;;;;5118212;27;20476;-77
2021/12/03 09:38:45;;;;;;;69.38;35.03;;;;;;;;;;5136753;27;19975;-77
2021/12/03 09:41:13;;;;;;;72.07;40.20;;;;;;;;;;5136428;27;20480;-77
2021/12/03 09:43:44;;;;;;;63.92;32.83;;;;;;;;;;5122669;27;20084;-78
2021/12/03 09:48:54;;;;;;;70.28;33.45;;;;;;;;;;5116903;28;20043;-77
2021/12/03 09:51:21;;;;;;;67.13;34.72;;;;;;;;;;5136442;27;20118;-77
2021/12/03 09:54:14;;;;;;;69.90;33.78;;;;;;;;;;5100784;27;20055;-78
2021/12/03 09:56:34;;;;;;;57.85;30.00;;;;;;;;;;5117076;27;20095;-78
2021/12/03 10:01:55;;;;;;;63.63;32.38;;;;;;;;;;5117834;27;20104;-79
2021/12/03 10:15:36;;;;;;;59.08;26.95;;;;;;;;;;5117332;27;20078;-76
2021/12/03 10:18:09;;;;;;;58.03;30.30;;;;;;;;;;5135610;27;20038;-78
2021/12/03 10:40:08;;;;;;;52.50;24.20;;;;;;;;;;5117338;27;20078;-77
2021/12/03 10:45:37;;;;;;;45.50;22.73;;;;;;;;;;5135149;27;20047;-78
2021/12/03 10:50:47;;;;;;;46.17;22.80;;;;;;;;;;5117074;27;20054;-78
2021/12/03 10:53:24;;;;;;;41.75;21.45;;;;;;;;;;5134733;27;20056;-79
2021/12/03 11:20:43;;;;;;;30.58;12.15;;;;;;;;;;5134557;27;20437;-76
2021/12/03 12:10:26;;;;;;;18.08;7.35;;;;;;;;;;5133839;27;20043;-78
2021/12/03 12:38:37;;;;;;;18.65;6.72;;;;;;;;;;5133314;28;20387;-79
2021/12/03 13:13:49;;;;;;;16.35;6.18;;;;;;;;;;5132907;28;20042;-78
2021/12/03 14:00:19;;;;;;;23.95;10.23;;;;;;;;;;5117719;27;20447;-77
2021/12/03 14:27:00;;;;;;;19.92;8.38;;;;;;;;;;5135784;27;20047;-79
2021/12/03 14:39:07;;;;;;;27.50;10.43;;;;;;;;;;5135632;27;20129;-77
2021/12/03 14:57:36;;;;;;;19.85;7.63;;;;;;;;;;5116395;27;20054;-77
2021/12/03 15:08:38;;;;;;;18.58;7.47;;;;;;;;;;5116276;27;20054;-77
2021/12/03 15:38:06;;;;;;;12.15;7.35;;;;;;;;;;5115815;27;20126;-78
2021/12/03 16:04:48;;;;;;;12.65;6.35;;;;;;;;;;5115763;27;20051;-77
2021/12/03 16:07:25;;;;;;;14.13;6.82;;;;;;;;;;5133768;27;20039;-76
2021/12/03 16:25:46;;;;;;;16.80;9.80;;;;;;;;;;5115307;28;20051;-78
2021/12/03 16:52:29;;;;;;;13.45;9.73;;;;;;;;;;5133534;28;20047;-77
2021/12/03 16:54:57;;;;;;;17.20;9.88;;;;;;;;;;5133013;27;20058;-77
2021/12/03 16:57:28;;;;;;;15.40;9.13;;;;;;;;;;5115196;28;20073;-76
2021/12/03 16:59:56;;;;;;;;;;;;;;;;;;5118535;27;20552;-77
2021/12/03 17:02:31;;;;;;;14.20;10.18;;;;;;;;;;5137094;27;20434;-77
2021/12/03 17:08:30;;;;;;;13.48;10.05;;;;;;;;;;5137290;27;20051;-77
2021/12/03 18:00:51;;;;;;;18.42;14.77;;;;;;;;;;5136076;27;20054;-78
2021/12/03 18:43:59;;;;;;;20.40;16.77;;;;;;;;;;5135273;27;20134;-78
2021/12/03 18:46:57;;;;;;;21.25;17.33;;;;;;;;;;5135063;27;20139;-77
2021/12/03 18:56:47;;;;;;;22.55;18.17;;;;;;;;;;5134997;27;20047;-78
2021/12/03 18:59:13;;;;;;;25.63;18.83;;;;;;;;;;5116516;27;20043;-77
2021/12/03 19:01:39;;;;;;;24.02;19.85;;;;;;;;;;5134936;27;20118;-78
2021/12/03 19:06:49;;;;;;;23.65;19.50;;;;;;;;;;5134692;27;20100;-77
2021/12/03 19:09:21;;;;;;;25.30;21.05;;;;;;;;;;5134610;27;20039;-77
2021/12/03 19:12:00;;;;;;;25.90;21.42;;;;;;;;;;5134909;27;20078;-77
2021/12/03 19:14:29;;;;;;;28.73;21.27;;;;;;;;;;5134875;27;20540;-77
2021/12/03 19:16:55;;;;;;;25.27;18.95;;;;;;;;;;5134735;27;20118;-78
2021/12/03 19:19:22;;;;;;;26.95;20.35;;;;;;;;;;5134721;27;20035;-78
2021/12/03 19:21:49;;;;;;;29.33;23.08;;;;;;;;;;5115873;27;20038;-78
2021/12/03 19:24:16;;;;;;;32.03;23.98;;;;;;;;;;5134599;27;20078;-77
2021/12/03 19:26:43;;;;;;;28.67;21.88;;;;;;;;;;5115624;27;20388;-78
2021/12/03 19:29:11;;;;;;;37.63;25.40;;;;;;;;;;5134383;27;20035;-77
2021/12/03 19:31:39;;;;;;;30.67;24.48;;;;;;;;;;5134410;27;20496;-77
2021/12/03 19:34:05;;;;;;;27.63;22.77;;;;;;;;;;5115744;27;20180;-77
2021/12/03 19:36:37;;;;;;;27.52;22.27;;;;;;;;;;5115593;27;20373;-78
2021/12/03 19:39:04;;;;;;;28.83;22.20;;;;;;;;;;5115765;27;20392;-77
2021/12/03 19:41:38;;;;;;;29.67;22.48;;;;;;;;;;5116004;27;20183;-77
2021/12/03 19:44:09;;;;;;;27.88;22.25;;;;;;;;;;5134055;27;20050;-78
2021/12/03 19:46:38;;;;;;;;;;;;;;;;;;5134349;27;20123;-78
2021/12/03 19:49:33;;;;;;;25.00;20.48;;;;;;;;;;5133959;27;19969;-77
2021/12/03 19:52:07;;;;;;;26.73;21.58;;;;;;;;;;5134033;27;20096;-77
2021/12/03 19:54:33;;;;;;;25.83;19.65;;;;;;;;;;5099975;27;20061;-77
2021/12/03 19:56:59;;;;;;;27.63;21.05;;;;;;;;;;5098870;27;20043;-78
2021/12/03 19:59:25;;;;;;;29.85;22.05;;;;;;;;;;5133791;27;20441;-77
2021/12/03 20:01:51;;;;;;;29.60;23.27;;;;;;;;;;5115278;27;20043;-78
2021/12/03 20:04:17;;;;;;;31.63;23.70;;;;;;;;;;5115603;27;20466;-78
2021/12/03 20:06:45;;;;;;;27.33;21.70;;;;;;;;;;5115658;27;20391;-78
2021/12/03 20:09:19;;;;;;;28.25;21.63;;;;;;;;;;5115464;27;20043;-78
2021/12/03 20:11:49;;;;;;;31.63;23.80;;;;;;;;;;5116047;27;20103;-78
2021/12/03 20:14:18;;;;;;;27.65;22.60;;;;;;;;;;5133567;27;20079;-77
2021/12/03 20:16:53;;;;;;;26.77;21.50;;;;;;;;;;5133854;27;20043;-77
2021/12/03 20:19:40;;;;;;;26.23;21.67;;;;;;;;;;5133618;27;20047;-77
2021/12/03 20:25:14;;;;;;;26.88;20.83;;;;;;;;;;5133754;27;20046;-77
2021/12/03 20:27:43;;;;;;;31.13;21.38;;;;;;;;;;5132926;28;20038;-77
2021/12/03 20:30:15;;;;;;;30.48;22.45;;;;;;;;;;5115275;28;20126;-76
2021/12/03 20:32:49;;;;;;;30.30;23.05;;;;;;;;;;5133391;27;20045;-77
2021/12/03 20:35:55;;;;;;;30.40;22.05;;;;;;;;;;5119238;27;20047;-76
2021/12/03 20:38:14;;;;;;;30.05;21.58;;;;;;;;;;5136993;27;20090;-77
2021/12/03 20:40:41;;;;;;;29.08;22.48;;;;;;;;;;5119602;27;20047;-76
2021/12/03 21:09:26;;;;;;;30.80;22.20;;;;;;;;;;5137244;27;20047;-77
2021/12/03 21:11:57;;;;;;;33.70;22.35;;;;;;;;;;5118869;27;20051;-78
2021/12/03 21:14:30;;;;;;;34.08;22.20;;;;;;;;;;5136822;27;20051;-76
2021/12/03 21:22:00;;;;;;;32.83;22.38;;;;;;;;;;5136752;27;20480;-77
2021/12/03 21:24:36;;;;;;;30.30;21.65;;;;;;;;;;5136648;27;20047;-76
2021/12/03 21:27:07;;;;;;;30.67;21.77;;;;;;;;;;5136671;27;20488;-76
2021/12/03 21:32:16;;;;;;;30.80;21.02;;;;;;;;;;5118482;27;20488;-76
2021/12/03 21:40:23;;;;;;;25.85;19.45;;;;;;;;;;5136789;27;20043;-77
2021/12/03 21:42:49;;;;;;;25.98;19.42;;;;;;;;;;5118356;27;20047;-78
2021/12/03 21:45:15;;;;;;;26.10;17.85;;;;;;;;;;5136308;27;20452;-77
2021/12/03 21:47:41;;;;;;;26.98;19.15;;;;;;;;;;5100952;27;20138;-77
2021/12/03 21:50:08;;;;;;;26.05;18.95;;;;;;;;;;5136441;27;20236;-78
2021/12/03 21:52:34;;;;;;;23.08;17.45;;;;;;;;;;5118234;27;20039;-76
2021/12/03 21:55:06;;;;;;;23.98;17.80;;;;;;;;;;5117640;27;20087;-77
2021/12/03 21:57:32;;;;;;;25.65;18.33;;;;;;;;;;5118059;27;20487;-77
2021/12/03 21:59:59;;;;;;;24.35;18.40;;;;;;;;;;5117816;27;20054;-76
2021/12/03 22:02:25;;;;;;;24.13;18.05;;;;;;;;;;5117635;27;20093;-77
2021/12/03 22:04:51;;;;;;;18.65;15.75;;;;;;;;;;5135999;27;20039;-77
2021/12/03 22:07:17;;;;;;;23.10;17.15;;;;;;;;;;5117729;27;20130;-77
2021/12/03 22:09:43;;;;;;;21.40;17.33;;;;;;;;;;5136112;27;20043;-77
2021/12/03 22:12:10;;;;;;;23.20;17.35;;;;;;;;;;5135938;27;20068;-76
2021/12/03 22:14:39;;;;;;;24.15;18.80;;;;;;;;;;5135830;27;20050;-77
2021/12/03 22:17:06;;;;;;;23.55;18.70;;;;;;;;;;5135689;27;20092;-77
2021/12/03 22:19:32;;;;;;;24.25;18.67;;;;;;;;;;5117634;27;20039;-77
2021/12/03 22:21:58;;;;;;;23.80;18.27;;;;;;;;;;5135851;27;20122;-77
2021/12/03 22:24:24;;;;;;;22.83;18.25;;;;;;;;;;5135754;27;20121;-77
2021/12/03 22:26:50;;;;;;;25.98;19.33;;;;;;;;;;5135487;27;20053;-76
2021/12/03 22:29:16;;;;;;;28.33;19.70;;;;;;;;;;5135387;27;20488;-76
2021/12/03 22:31:43;;;;;;;24.05;18.90;;;;;;;;;;5135803;27;20047;-77
2021/12/03 22:34:09;;;;;;;27.00;19.30;;;;;;;;;;5117105;27;20047;-77
2021/12/03 22:36:35;;;;;;;25.48;19.30;;;;;;;;;;5135499;27;20079;-77
2021/12/03 22:39:01;;;;;;;26.63;19.48;;;;;;;;;;5135749;27;20043;-76
2021/12/03 22:41:28;;;;;;;26.42;19.05;;;;;;;;;;5117070;27;20089;-78
2021/12/03 22:43:54;;;;;;;27.02;19.92;;;;;;;;;;5135218;27;20047;-78
2021/12/03 22:54:17;;;;;;;29.80;20.50;;;;;;;;;;5116124;27;20055;-77
2021/12/03 22:56:43;;;;;;;27.33;19.55;;;;;;;;;;5134647;27;20039;-77
2021/12/03 22:59:09;;;;;;;28.27;19.70;;;;;;;;;;5135105;27;20125;-78
2021/12/03 23:01:35;;;;;;;27.30;20.50;;;;;;;;;;5135020;27;20039;-78
2021/12/03 23:04:02;;;;;;;31.38;21.50;;;;;;;;;;5134898;27;20039;-78
2021/12/03 23:06:31;;;;;;;29.58;21.33;;;;;;;;;;5134747;27;20050;-78
2021/12/03 23:09:07;;;;;;;32.35;22.42;;;;;;;;;;5134757;27;20046;-75
2021/12/03 23:11:33;;;;;;;31.27;22.05;;;;;;;;;;5116003;27;20376;-75
2021/12/03 23:13:59;;;;;;;33.05;21.77;;;;;;;;;;5115135;27;20045;-77
2021/12/03 23:16:25;;;;;;;30.00;21.83;;;;;;;;;;5134238;27;20091;-77
2021/12/03 23:18:51;;;;;;;34.22;22.27;;;;;;;;;;5116151;27;20043;-77
2021/12/03 23:21:17;;;;;;;33.33;21.27;;;;;;;;;;5134553;27;20043;-77